createdAt,value
2023-05-21T00:01:45.706Z,7.57
2023-05-21T00:04:15.550Z,9.10
2023-05-21T00:06:43.381Z,7.47
2023-05-21T00:09:12.877Z,6.78
2023-05-21T00:11:40.721Z,6.72
2023-05-21T00:14:08.615Z,6.20
2023-05-21T00:16:37.856Z,8.25
2023-05-21T00:19:06.192Z,7.80
2023-05-21T00:21:34.050Z,6.18
2023-05-21T00:24:01.875Z,6.63
2023-05-21T00:26:29.717Z,6.18
2023-05-21T00:28:58.503Z,7.93
2023-05-21T00:31:26.354Z,6.78
2023-05-21T00:33:55.930Z,7.38
2023-05-21T00:36:24.385Z,7.85
2023-05-21T00:38:53.060Z,6.55
2023-05-21T00:41:22.749Z,6.90
2023-05-21T00:43:50.659Z,7.15
2023-05-21T00:46:20.983Z,8.48
2023-05-21T00:48:50.457Z,8.85
2023-05-21T00:51:21.538Z,6.63
2023-05-21T00:53:52.508Z,7.53
2023-05-21T00:56:21.377Z,6.78
2023-05-21T00:58:49.466Z,6.43
2023-05-21T01:01:18.330Z,6.82
2023-05-21T01:03:48.572Z,7.85
2023-05-21T01:06:17.057Z,6.65
2023-05-21T01:08:46.706Z,7.63
2023-05-21T01:11:15.699Z,7.35
2023-05-21T01:13:44.799Z,7.80
2023-05-21T01:16:13.663Z,7.28
2023-05-21T01:18:43.655Z,8.75
2023-05-21T01:23:41.568Z,7.97
2023-05-21T01:26:12.820Z,7.75
2023-05-21T01:28:40.671Z,7.85
2023-05-21T01:31:17.618Z,10.73
2023-05-21T01:33:49.960Z,7.88
2023-05-21T01:36:24.246Z,7.90
2023-05-21T01:38:58.888Z,12.00
2023-05-21T01:41:28.509Z,7.63
2023-05-21T01:43:57.745Z,10.02
2023-05-21T01:46:32.395Z,7.90
2023-05-21T01:49:00.925Z,8.82
2023-05-21T01:51:29.443Z,7.88
2023-05-21T01:53:58.659Z,8.65
2023-05-21T01:56:28.510Z,9.77
2023-05-21T01:58:59.521Z,8.85
2023-05-21T02:01:30.414Z,9.27
2023-05-21T02:03:58.951Z,11.05
2023-05-21T02:06:26.875Z,9.63
2023-05-21T02:08:55.591Z,8.65
2023-05-21T02:11:25.147Z,8.90
2023-05-21T02:13:54.480Z,9.05
2023-05-21T02:16:22.488Z,8.88
2023-05-21T02:18:52.272Z,8.68
2023-05-21T02:21:20.731Z,8.20
2023-05-21T02:23:48.566Z,7.82
2023-05-21T02:26:17.495Z,9.98
2023-05-21T02:28:46.717Z,9.57
2023-05-21T02:31:14.641Z,8.40
2023-05-21T02:33:43.119Z,9.80
2023-05-21T02:36:13.521Z,9.82
2023-05-21T02:38:43.666Z,12.70
2023-05-21T02:41:12.135Z,9.30
2023-05-21T02:43:40.638Z,8.82
2023-05-21T02:46:10.001Z,8.63
2023-05-21T02:48:37.855Z,9.25
2023-05-21T02:51:06.627Z,9.65
2023-05-21T02:53:34.468Z,8.68
2023-05-21T02:56:02.260Z,8.45
2023-05-21T02:58:30.238Z,8.73
2023-05-21T03:00:58.114Z,9.63
2023-05-21T03:03:27.387Z,11.48
2023-05-21T03:05:55.310Z,8.90
2023-05-21T03:08:23.231Z,10.23
2023-05-21T03:10:51.142Z,9.68
2023-05-21T03:13:19.144Z,10.95
2023-05-21T03:15:47.388Z,8.85
2023-05-21T03:18:15.329Z,8.60
2023-05-21T03:20:45.445Z,9.48
2023-05-21T03:23:16.391Z,9.10
2023-05-21T03:25:45.973Z,8.90
2023-05-21T03:28:14.350Z,10.05
2023-05-21T03:30:46.714Z,10.25
2023-05-21T03:33:37.546Z,10.02
2023-05-21T03:36:19.731Z,9.27
2023-05-21T03:38:47.729Z,9.70
2023-05-21T03:41:15.817Z,9.35
2023-05-21T03:43:47.385Z,10.65
2023-05-21T03:46:15.348Z,8.00
2023-05-21T03:48:49.657Z,8.98
2023-05-21T03:51:22.814Z,12.27
2023-05-21T03:53:50.869Z,11.25
2023-05-21T03:56:18.980Z,8.57
2023-05-21T03:58:46.887Z,9.75
2023-05-21T04:01:15.205Z,9.00
2023-05-21T04:03:43.374Z,9.45
2023-05-21T04:06:11.426Z,8.52
2023-05-21T04:08:42.620Z,10.60
2023-05-21T04:11:10.590Z,9.65
2023-05-21T04:13:39.615Z,9.68
2023-05-21T04:16:09.066Z,9.35
2023-05-21T04:18:37.037Z,9.70
2023-05-21T04:21:05.900Z,9.65
2023-05-21T04:23:33.720Z,9.38
2023-05-21T04:26:04.816Z,9.43
2023-05-21T04:28:33.254Z,8.95
2023-05-21T04:31:01.304Z,9.30
2023-05-21T04:33:30.435Z,11.13
2023-05-21T04:35:58.367Z,8.77
2023-05-21T04:38:26.413Z,9.57
2023-05-21T04:40:55.657Z,8.38
2023-05-21T04:43:26.160Z,11.20
2023-05-21T04:45:56.964Z,9.35
2023-05-21T04:48:26.827Z,9.30
2023-05-21T04:50:56.073Z,9.38
2023-05-21T04:53:26.110Z,9.18
2023-05-21T04:55:54.164Z,8.98
2023-05-21T04:58:22.043Z,8.52
2023-05-21T05:00:51.949Z,8.88
2023-05-21T05:03:19.915Z,8.63
2023-05-21T05:05:48.476Z,10.88
2023-05-21T05:08:16.336Z,9.48
2023-05-21T05:10:44.674Z,9.15
2023-05-21T05:13:12.570Z,8.60
2023-05-21T05:15:40.462Z,9.40
2023-05-21T05:18:11.912Z,10.63
2023-05-21T05:20:41.331Z,9.18
2023-05-21T05:23:09.110Z,10.38
2023-05-21T05:25:37.125Z,10.10
2023-05-21T05:28:05.468Z,9.93
2023-05-21T05:30:33.508Z,9.27
2023-05-21T05:33:14.229Z,11.00
2023-05-21T05:35:42.304Z,9.20
2023-05-21T05:38:10.192Z,10.35
2023-05-21T05:40:38.427Z,9.30
2023-05-21T05:43:06.449Z,10.63
2023-05-21T05:45:34.474Z,11.23
2023-05-21T05:48:03.955Z,9.90
2023-05-21T05:50:33.328Z,9.50
2023-05-21T05:53:01.178Z,10.98
2023-05-21T05:55:30.216Z,9.82
2023-05-21T05:57:58.092Z,11.32
2023-05-21T06:00:26.258Z,9.18
2023-05-21T06:02:54.400Z,10.00
2023-05-21T06:05:22.566Z,11.77
2023-05-21T06:07:51.806Z,10.95
2023-05-21T06:10:21.465Z,9.25
2023-05-21T06:12:49.313Z,9.93
2023-05-21T06:15:19.404Z,9.40
2023-05-21T06:17:47.278Z,10.30
2023-05-21T06:20:17.163Z,11.05
2023-05-21T06:22:45.147Z,9.48
2023-05-21T06:25:14.600Z,10.75
2023-05-21T06:27:42.532Z,10.20
2023-05-21T06:30:17.530Z,9.68
2023-05-21T06:32:45.475Z,9.98
2023-05-21T06:35:13.410Z,10.18
2023-05-21T06:37:41.229Z,11.25
2023-05-21T06:40:10.129Z,9.60
2023-05-21T06:42:39.994Z,10.75
2023-05-21T06:45:26.262Z,9.93
2023-05-21T06:47:59.272Z,11.73
2023-05-21T06:50:27.782Z,9.68
2023-05-21T06:52:55.777Z,12.57
2023-05-21T06:55:23.869Z,9.90
2023-05-21T06:58:05.782Z,10.02
2023-05-21T07:00:33.633Z,10.52
2023-05-21T07:03:01.549Z,10.52
2023-05-21T07:05:29.430Z,11.15
2023-05-21T07:07:57.519Z,11.30
2023-05-21T07:10:25.400Z,10.57
2023-05-21T07:12:53.215Z,9.93
2023-05-21T07:15:23.167Z,11.30
2023-05-21T07:17:51.244Z,10.82
2023-05-21T07:20:19.828Z,12.55
2023-05-21T07:22:50.819Z,9.95
2023-05-21T07:25:18.794Z,11.57
2023-05-21T07:27:46.584Z,9.82
2023-05-21T07:30:15.681Z,11.02
2023-05-21T07:32:45.047Z,11.02
2023-05-21T07:35:12.901Z,10.13
2023-05-21T07:37:41.087Z,11.32
2023-05-21T07:40:10.057Z,11.07
2023-05-21T07:42:38.253Z,11.18
2023-05-21T07:45:08.476Z,11.38
2023-05-21T07:47:41.402Z,10.80
2023-05-21T07:50:12.172Z,9.90
2023-05-21T07:55:10.006Z,11.10
2023-05-21T07:57:39.335Z,12.88
2023-05-21T08:00:14.781Z,13.02
2023-05-21T08:02:52.295Z,10.38
2023-05-21T08:05:23.471Z,10.35
2023-05-21T08:07:51.720Z,9.30
2023-05-21T08:10:20.663Z,8.85
2023-05-21T08:12:51.213Z,9.70
2023-05-21T08:15:19.651Z,10.65
2023-05-21T08:17:47.548Z,8.85
2023-05-21T08:20:16.518Z,10.48
2023-05-21T08:22:48.358Z,10.55
2023-05-21T08:25:16.249Z,11.30
2023-05-21T08:27:44.482Z,9.88
2023-05-21T08:30:12.990Z,10.82
2023-05-21T08:32:41.288Z,11.25
2023-05-21T08:35:09.991Z,10.35
2023-05-21T08:37:57.901Z,10.35
2023-05-21T08:40:41.515Z,12.07
2023-05-21T08:43:13.719Z,10.52
2023-05-21T08:45:51.115Z,10.55
2023-05-21T08:48:21.155Z,10.73
2023-05-21T08:50:49.185Z,11.85
2023-05-21T08:53:28.604Z,10.05
2023-05-21T08:55:58.193Z,9.63
2023-05-21T08:58:37.737Z,9.90
2023-05-21T09:01:06.600Z,11.45
2023-05-21T09:03:39.531Z,9.80
2023-05-21T09:06:11.707Z,9.60
2023-05-21T09:08:45.912Z,13.00
2023-05-21T09:11:39.607Z,10.15
2023-05-21T09:14:08.190Z,9.43
2023-05-21T09:16:49.339Z,9.65
2023-05-21T09:19:18.219Z,9.82
2023-05-21T09:21:46.144Z,9.45
2023-05-21T09:24:18.469Z,9.02
2023-05-21T09:26:46.670Z,8.18
2023-05-21T09:29:14.666Z,9.48
2023-05-21T09:31:44.822Z,9.27
2023-05-21T09:34:14.607Z,10.70
2023-05-21T09:36:44.346Z,10.07
2023-05-21T09:39:16.490Z,9.27
2023-05-21T09:41:46.562Z,10.77
2023-05-21T09:44:15.337Z,10.73
2023-05-21T09:46:43.606Z,8.07
2023-05-21T09:49:24.015Z,8.32
2023-05-21T09:51:56.300Z,9.13
2023-05-21T09:54:24.259Z,9.73
2023-05-21T09:56:53.852Z,9.20
2023-05-21T09:59:22.234Z,9.95
2023-05-21T10:01:52.574Z,9.13
2023-05-21T10:04:21.154Z,8.15
2023-05-21T10:06:49.999Z,8.98
2023-05-21T10:09:20.452Z,9.00
2023-05-21T10:11:50.568Z,8.88
2023-05-21T10:14:22.391Z,9.35
2023-05-21T10:16:51.201Z,8.77
2023-05-21T10:19:20.478Z,8.10
2023-05-21T10:21:50.397Z,9.60
2023-05-21T10:24:20.047Z,7.30
2023-05-21T10:26:49.026Z,8.52
2023-05-21T10:29:19.401Z,10.23
2023-05-21T10:31:50.744Z,8.50
2023-05-21T10:34:18.889Z,8.75
2023-05-21T10:36:49.783Z,8.40
2023-05-21T10:39:19.848Z,8.80
2023-05-21T10:41:58.392Z,7.40
2023-05-21T10:44:38.533Z,8.48
2023-05-21T10:47:29.751Z,9.48
2023-05-21T10:50:12.164Z,8.68
2023-05-21T10:52:57.082Z,8.88
2023-05-21T10:55:47.770Z,8.27
2023-05-21T10:58:39.327Z,9.35
2023-05-21T11:01:08.504Z,8.60
2023-05-21T11:03:38.292Z,9.75
2023-05-21T11:06:08.482Z,10.13
2023-05-21T11:08:37.589Z,8.18
2023-05-21T11:11:05.930Z,8.77
2023-05-21T11:13:48.799Z,8.45
2023-05-21T11:16:17.304Z,9.63
2023-05-21T11:19:02.610Z,8.75
2023-05-21T11:21:35.935Z,8.52
2023-05-21T11:24:06.459Z,9.48
2023-05-21T11:27:06.883Z,10.07
2023-05-21T11:29:44.169Z,8.70
2023-05-21T11:32:14.076Z,8.57
2023-05-21T11:34:45.943Z,10.10
2023-05-21T11:37:30.147Z,9.07
2023-05-21T11:40:16.709Z,9.50
2023-05-21T11:42:49.645Z,10.30
2023-05-21T11:45:19.181Z,8.93
2023-05-21T11:47:48.073Z,11.00
2023-05-21T11:50:17.731Z,8.98
2023-05-21T11:52:46.388Z,10.73
2023-05-21T11:55:15.659Z,10.77
2023-05-21T11:57:47.880Z,10.55
2023-05-21T12:00:17.140Z,10.15
2023-05-21T12:02:51.206Z,9.98
2023-05-21T12:05:20.711Z,10.32
2023-05-21T12:07:52.235Z,10.38
2023-05-21T12:10:22.971Z,9.27
2023-05-21T12:12:56.607Z,10.90
2023-05-21T12:15:26.216Z,8.65
2023-05-21T12:17:54.383Z,10.77
2023-05-21T12:20:23.840Z,11.30
2023-05-21T12:22:51.674Z,11.68
2023-05-21T12:25:21.064Z,11.75
2023-05-21T12:27:50.975Z,9.43
2023-05-21T12:30:19.011Z,10.80
2023-05-21T12:32:47.023Z,11.77
2023-05-21T12:35:25.544Z,12.30
2023-05-21T12:37:53.517Z,11.07
2023-05-21T12:40:22.210Z,10.25
2023-05-21T12:42:51.625Z,10.23
2023-05-21T12:45:22.086Z,9.93
2023-05-21T12:47:56.023Z,12.07
2023-05-21T12:50:25.635Z,9.90
2023-05-21T12:52:56.936Z,11.40
2023-05-21T12:55:25.738Z,11.55
2023-05-21T12:58:02.718Z,11.95
2023-05-21T13:00:30.591Z,11.50
2023-05-21T13:03:00.117Z,11.88
2023-05-21T13:05:29.418Z,11.35
2023-05-21T13:07:57.230Z,12.18
2023-05-21T13:10:25.210Z,13.77
2023-05-21T13:12:53.073Z,12.45
2023-05-21T13:15:21.434Z,10.98
2023-05-21T13:17:50.598Z,11.20
2023-05-21T13:20:21.648Z,11.05
2023-05-21T13:22:52.774Z,11.35
2023-05-21T13:25:22.092Z,11.85
2023-05-21T13:27:51.257Z,11.60
2023-05-21T13:30:19.826Z,10.82
2023-05-21T13:32:47.982Z,12.55
2023-05-21T13:35:16.780Z,10.73
2023-05-21T13:37:45.521Z,13.57
2023-05-21T13:40:16.586Z,10.63
2023-05-21T13:42:45.467Z,13.32
2023-05-21T13:45:15.276Z,10.10
2023-05-21T13:47:44.290Z,13.00
2023-05-21T13:50:13.327Z,13.82
2023-05-21T13:52:41.292Z,12.25
2023-05-21T13:55:11.215Z,11.30
2023-05-21T13:57:40.635Z,11.52
2023-05-21T14:00:12.500Z,11.15
2023-05-21T14:02:43.221Z,13.40
2023-05-21T14:05:12.361Z,11.73
2023-05-21T14:07:40.937Z,13.55
2023-05-21T14:10:09.858Z,11.98
2023-05-21T14:12:38.528Z,10.15
2023-05-21T14:15:08.727Z,11.35
2023-05-21T14:17:36.634Z,11.90
2023-05-21T14:20:04.703Z,12.77
2023-05-21T14:22:32.567Z,11.02
2023-05-21T14:25:00.414Z,12.60
2023-05-21T14:27:28.256Z,12.23
2023-05-21T14:29:56.098Z,11.07
2023-05-21T14:32:25.372Z,11.05
2023-05-21T14:34:53.274Z,12.77
2023-05-21T14:37:21.124Z,11.85
2023-05-21T14:39:49.322Z,11.00
2023-05-21T14:42:17.371Z,12.43
2023-05-21T14:44:45.179Z,10.10
2023-05-21T14:47:12.995Z,13.43
2023-05-21T14:49:42.177Z,10.43
2023-05-21T14:52:10.014Z,10.10
2023-05-21T14:54:38.494Z,10.45
2023-05-21T14:57:06.681Z,9.57
2023-05-21T14:59:34.557Z,12.23
2023-05-21T15:02:02.632Z,10.23
2023-05-21T15:04:30.659Z,9.48
2023-05-21T15:06:59.802Z,7.97
2023-05-21T15:09:27.613Z,11.35
2023-05-21T15:11:55.552Z,8.93
2023-05-21T15:14:23.382Z,9.43
2023-05-21T15:16:51.272Z,10.23
2023-05-21T15:19:19.210Z,8.35
2023-05-21T15:21:47.125Z,12.52
2023-05-21T15:24:16.256Z,8.18
2023-05-21T15:26:44.047Z,9.68
2023-05-21T15:29:11.882Z,9.82
2023-05-21T15:31:39.677Z,8.95
2023-05-21T15:34:07.697Z,9.50
2023-05-21T15:36:36.570Z,10.85
2023-05-21T15:39:05.961Z,10.02
2023-05-21T15:41:38.295Z,9.82
2023-05-21T15:44:06.276Z,12.23
2023-05-21T15:46:34.213Z,9.63
2023-05-21T15:49:02.096Z,8.82
2023-05-21T15:51:29.895Z,10.40
2023-05-21T15:53:57.711Z,8.82
2023-05-21T15:56:26.562Z,9.15
2023-05-21T15:58:58.522Z,10.20
2023-05-21T16:01:27.353Z,9.35
2023-05-21T16:03:55.416Z,10.57
2023-05-21T16:06:23.249Z,12.70
2023-05-21T16:08:51.083Z,9.13
2023-05-21T16:11:18.961Z,10.02
2023-05-21T16:13:46.793Z,10.35
2023-05-21T16:16:16.118Z,11.27
2023-05-21T16:18:43.994Z,8.50
2023-05-21T16:21:11.869Z,10.20
2023-05-21T16:23:39.755Z,9.88
2023-05-21T16:26:08.283Z,8.95
2023-05-21T16:28:37.514Z,9.57
2023-05-21T16:31:05.845Z,8.50
2023-05-21T16:33:35.026Z,9.38
2023-05-21T16:36:02.882Z,10.55
2023-05-21T16:38:30.679Z,12.68
2023-05-21T16:40:58.512Z,11.00
2023-05-21T16:43:26.309Z,10.18
2023-05-21T16:45:54.255Z,10.05
2023-05-21T16:48:22.112Z,10.45
2023-05-21T16:50:51.315Z,11.25
2023-05-21T16:53:19.158Z,11.52
2023-05-21T16:55:46.989Z,9.80
2023-05-21T16:58:14.829Z,11.85
2023-05-21T17:00:42.676Z,12.00
2023-05-21T17:03:11.039Z,10.85
2023-05-21T17:05:39.200Z,10.80
2023-05-21T17:08:08.651Z,11.38
2023-05-21T17:10:36.499Z,10.90
2023-05-21T17:13:17.442Z,12.13
2023-05-21T17:15:49.099Z,12.05
2023-05-21T17:18:17.208Z,13.13
2023-05-21T17:20:45.082Z,9.50
2023-05-21T17:23:14.280Z,11.23
2023-05-21T17:25:42.154Z,12.55
2023-05-21T17:28:10.155Z,16.02
2023-05-21T17:30:37.990Z,12.25
2023-05-21T17:33:06.529Z,12.10
2023-05-21T17:35:35.131Z,13.77
2023-05-21T17:38:03.079Z,10.70
2023-05-21T17:40:32.230Z,13.15
2023-05-21T17:43:00.060Z,12.35
2023-05-21T17:45:27.838Z,11.35
2023-05-21T17:47:59.669Z,12.20
2023-05-21T17:50:28.233Z,11.32
2023-05-21T17:52:56.165Z,13.93
2023-05-21T17:55:23.970Z,13.57
2023-05-21T17:57:53.218Z,12.50
2023-05-21T18:00:21.626Z,14.07
2023-05-21T18:02:49.480Z,15.77
2023-05-21T18:05:17.406Z,13.65
2023-05-21T18:07:45.319Z,13.60
2023-05-21T18:10:15.187Z,14.82
2023-05-21T18:12:43.795Z,15.45
2023-05-21T18:15:14.615Z,13.35
2023-05-21T18:20:10.969Z,15.07
2023-05-21T18:22:38.823Z,17.40
2023-05-21T18:25:07.696Z,13.35
2023-05-21T18:27:35.510Z,13.18
2023-05-21T18:30:06.259Z,14.50
2023-05-21T18:35:07.825Z,14.38
2023-05-21T18:37:36.931Z,13.70
2023-05-21T18:40:05.865Z,15.80
2023-05-21T18:42:33.745Z,16.27
2023-05-21T18:45:07.389Z,15.73
2023-05-21T18:47:39.047Z,21.60
2023-05-21T18:50:08.889Z,16.75
2023-05-21T18:52:36.729Z,16.88
2023-05-21T18:55:05.505Z,18.33
2023-05-21T18:57:34.778Z,16.05
2023-05-21T19:00:03.068Z,17.52
2023-05-21T19:02:31.094Z,16.88
2023-05-21T19:05:01.911Z,16.67
2023-05-21T19:07:30.200Z,17.70
2023-05-21T19:10:00.027Z,16.92
2023-05-21T19:12:29.339Z,18.35
2023-05-21T19:14:57.208Z,18.52
2023-05-21T19:17:25.075Z,17.20
2023-05-21T19:19:55.869Z,18.80
2023-05-21T19:24:53.422Z,19.90
2023-05-21T19:27:21.591Z,17.50
2023-05-21T19:29:49.466Z,20.42
2023-05-21T19:32:17.740Z,18.33
2023-05-21T19:34:46.572Z,18.58
2023-05-21T19:37:14.422Z,19.48
2023-05-21T19:39:44.691Z,19.17
2023-05-21T19:42:12.564Z,21.20
2023-05-21T19:44:41.235Z,18.50
2023-05-21T19:47:09.356Z,20.42
2023-05-21T19:49:37.231Z,20.27
2023-05-21T19:52:06.032Z,23.42
2023-05-21T19:54:33.896Z,19.40
2023-05-21T19:57:03.371Z,21.15
2023-05-21T19:59:31.165Z,19.42
2023-05-21T20:01:59.060Z,19.60
2023-05-21T20:04:26.945Z,19.33
2023-05-21T20:06:54.835Z,18.23
2023-05-21T20:09:22.627Z,18.50
2023-05-21T20:11:50.540Z,20.67
2023-05-21T20:14:19.714Z,19.73
2023-05-21T20:16:48.423Z,20.05
2023-05-21T20:19:16.345Z,21.00
2023-05-21T20:21:44.304Z,19.77
2023-05-21T20:24:12.239Z,18.70
2023-05-21T20:26:40.072Z,19.05
2023-05-21T20:29:08.223Z,17.10
2023-05-21T20:31:37.763Z,16.95
2023-05-21T20:34:09.050Z,17.50
2023-05-21T20:36:37.200Z,17.83
2023-05-21T20:39:06.229Z,19.15
2023-05-21T20:41:36.246Z,17.85
2023-05-21T20:44:06.036Z,17.70
2023-05-21T20:46:34.288Z,18.50
2023-05-21T20:49:04.050Z,18.70
2023-05-21T20:51:32.286Z,19.60
2023-05-21T20:54:00.148Z,18.88
2023-05-21T20:56:40.820Z,18.70
2023-05-21T20:59:11.398Z,18.92
2023-05-21T21:01:40.624Z,18.33
2023-05-21T21:04:10.534Z,18.13
2023-05-21T21:06:40.239Z,17.45
2023-05-21T21:09:08.397Z,20.02
2023-05-21T21:11:36.222Z,18.67
2023-05-21T21:14:04.170Z,21.63
2023-05-21T21:16:32.198Z,19.77
2023-05-21T21:19:00.127Z,20.05
2023-05-21T21:21:29.510Z,20.05
2023-05-21T21:23:57.462Z,18.23
2023-05-21T21:26:27.027Z,21.58
2023-05-21T21:28:56.247Z,20.65
2023-05-21T21:31:24.773Z,21.85
2023-05-21T21:33:52.784Z,18.80
2023-05-21T21:36:20.671Z,21.27
2023-05-21T21:38:49.838Z,19.92
2023-05-21T21:41:17.734Z,20.67
2023-05-21T21:43:45.560Z,20.10
2023-05-21T21:46:13.414Z,19.15
2023-05-21T21:48:41.275Z,19.33
2023-05-21T21:51:09.106Z,21.00
2023-05-21T21:53:36.939Z,20.98
2023-05-21T21:56:06.460Z,20.98
2023-05-21T21:58:34.330Z,21.45
2023-05-21T22:01:02.246Z,19.65
2023-05-21T22:03:33.338Z,21.33
2023-05-21T22:06:01.227Z,20.30
2023-05-21T22:08:29.130Z,21.70
2023-05-21T22:10:56.919Z,22.30
2023-05-21T22:13:28.516Z,21.58
2023-05-21T22:15:57.762Z,20.83
2023-05-21T22:18:38.820Z,24.40
2023-05-21T22:21:09.694Z,21.42
2023-05-21T22:23:38.359Z,21.30
2023-05-21T22:26:06.492Z,22.55
2023-05-21T22:28:35.784Z,24.73
2023-05-21T22:31:03.908Z,22.85
2023-05-21T22:33:32.081Z,22.10
2023-05-21T22:35:59.925Z,21.90
2023-05-21T22:38:27.814Z,23.02
2023-05-21T22:40:55.600Z,24.10
2023-05-21T22:43:23.413Z,19.88
2023-05-21T22:45:52.650Z,21.95
2023-05-21T22:48:21.926Z,22.05
2023-05-21T22:50:50.147Z,22.75
2023-05-21T22:53:18.373Z,23.40
2023-05-21T22:55:46.188Z,24.30
2023-05-21T22:58:14.000Z,23.85
2023-05-21T23:00:41.960Z,24.77
2023-05-21T23:03:11.267Z,22.95
2023-05-21T23:05:39.336Z,23.42
2023-05-21T23:08:07.418Z,22.90
2023-05-21T23:10:36.068Z,23.33
2023-05-21T23:13:04.023Z,28.27
2023-05-21T23:15:31.874Z,23.63
2023-05-21T23:18:00.400Z,23.30
2023-05-21T23:20:29.634Z,25.23
2023-05-21T23:22:57.467Z,25.67
2023-05-21T23:25:25.293Z,28.00
2023-05-21T23:27:53.085Z,26.42
2023-05-21T23:30:21.100Z,25.67
2023-05-21T23:32:49.022Z,26.38
2023-05-21T23:35:16.979Z,31.95
2023-05-21T23:37:46.182Z,27.73
2023-05-21T23:40:14.226Z,34.17
2023-05-21T23:42:42.174Z,29.58
2023-05-21T23:45:10.643Z,27.85
2023-05-21T23:47:38.518Z,30.65
2023-05-21T23:50:07.841Z,27.85
2023-05-21T23:52:35.892Z,26.63
2023-05-21T23:55:05.346Z,23.55
2023-05-21T23:57:33.144Z,32.05
